Main page
METAR-TAF:

METAR-TAF

Airports :

Agen, France

Agen La Garenne Airport

latitude: 44-11N, longitude: 000-36E, elevation: 61 m

Current weather observation

The report was made 25 minutes ago, at 03:30 UTC
Calm wind
Temperature 6°C
Humidity 93%
Pressure 1024 hPa
Visibility: 6000 m

METAR: LFBA 200330Z AUTO 00000KT 6000 NSC 06/05 Q1024

Time: 05:55 (03:55 UTC)

Forecast

The report was made 13 hours and 55 minutes ago, at 14:00 UTC
Forecast valid from 19 at 15 UTC to 19 at 24 UTC
Wind 10 kt from the West/Northwest
Visibility 10 km or more
Scattered clouds at a height of 2000 ft
Becoming
from 19 at 18 UTC to 19 at 20 UTC
Wind 2 kt from variable directions

TAF: LFBA 191400Z 1915/1924 30010KT 9999 SCT020 BECMG 1918/1920 VRB02KT

Weather observations and forecasts of more than 4000 airports (METAR and TAF reports).

The available stations are represented by yellow and red dots on the map.

Hover mouse over dot to see the name of the station.

Then click to see weather observations and forecasts.

To change the map : click on the green buttons with a black cross to zoom in, on the green button with a dash to zoom out, or on the green arrows for adjacent maps.


METAR-TAF: